Аэропорт: Хабаровск-Новый. Хабаровск

ICAO: UHHH

METAR:
2021-10-23 02:30:00
UHHH 230230Z 24005MPS CAVOK 08/M02 Q1016 R23R/090060 NOSIG RMK QFE756/1008
METAR:
2021-10-22 22:46:00
TAF UHHH 222246Z 2300/2406 24004MPS CAVOK TEMPO 2300/2310 26007G12MPS